createdAt,value
2022-09-07T00:02:25.613Z,95785.31
2022-09-07T00:04:52.719Z,95786.38
2022-09-07T00:07:19.898Z,95775.69
2022-09-07T00:09:47.063Z,95785.72
2022-09-07T00:12:14.221Z,95780.94
2022-09-07T00:14:41.423Z,95780.56
2022-09-07T00:17:08.658Z,95781.00
2022-09-07T00:19:35.817Z,95773.03
2022-09-07T00:22:03.091Z,95762.06
2022-09-07T00:24:30.311Z,95756.44
2022-09-07T00:26:57.856Z,95757.28
2022-09-07T00:29:24.985Z,95758.44
2022-09-07T00:31:52.470Z,95751.78
2022-09-07T00:34:19.662Z,95758.88
2022-09-07T00:36:46.825Z,95755.91
2022-09-07T00:39:13.933Z,95756.44
2022-09-07T00:41:41.088Z,95744.38
2022-09-07T00:44:42.384Z,95745.41
2022-09-07T00:47:35.027Z,95742.88
2022-09-07T00:50:11.122Z,95730.59
2022-09-07T00:52:41.437Z,95732.69
2022-09-07T00:55:11.849Z,95730.47
2022-09-07T00:57:42.939Z,95729.63
2022-09-07T01:00:10.599Z,95725.38
2022-09-07T01:02:38.451Z,95721.13
2022-09-07T01:05:30.153Z,95708.09
2022-09-07T01:07:58.159Z,95716.72
2022-09-07T01:10:29.296Z,95714.00
2022-09-07T01:12:56.489Z,95710.31
2022-09-07T01:15:38.266Z,95716.72
2022-09-07T01:18:46.765Z,95716.47
2022-09-07T01:21:19.576Z,95720.53
2022-09-07T01:24:26.016Z,95722.59
2022-09-07T01:27:22.750Z,95720.47
2022-09-07T01:30:04.781Z,95732.66
2022-09-07T01:32:42.087Z,95729.66
2022-09-07T01:35:26.175Z,95730.72
2022-09-07T01:38:07.967Z,95735.81
2022-09-07T01:40:53.317Z,95730.41
2022-09-07T01:43:32.093Z,95719.63
2022-09-07T01:46:02.188Z,95732.75
2022-09-07T01:48:34.564Z,95733.00
2022-09-07T01:51:12.021Z,95728.97
2022-09-07T01:53:41.376Z,95738.38
2022-09-07T01:56:08.327Z,95730.72
2022-09-07T01:58:51.804Z,95738.59
2022-09-07T02:01:33.779Z,95732.72
2022-09-07T02:04:03.745Z,95729.38
2022-09-07T02:06:41.006Z,95728.00
2022-09-07T02:09:18.841Z,95714.03
2022-09-07T02:11:50.072Z,95716.22
2022-09-07T02:14:33.307Z,95730.47
2022-09-07T02:17:06.692Z,95735.25
2022-09-07T02:19:51.910Z,95734.66
2022-09-07T02:22:25.265Z,95732.69
2022-09-07T02:24:58.421Z,95728.53
2022-09-07T02:27:33.518Z,95729.22
2022-09-07T02:30:00.715Z,95723.03
2022-09-07T02:32:27.841Z,95724.34
2022-09-07T02:34:54.984Z,95726.91
2022-09-07T02:37:23.111Z,95723.66
2022-09-07T02:39:50.372Z,95722.91
2022-09-07T02:42:17.513Z,95716.25
2022-09-07T02:44:46.490Z,95718.91
2022-09-07T02:47:24.869Z,95719.28
2022-09-07T02:50:25.654Z,95717.59
2022-09-07T02:53:29.180Z,95717.81
2022-09-07T02:55:58.991Z,95706.34
2022-09-07T02:58:32.248Z,95715.56
2022-09-07T03:01:05.788Z,95714.81
2022-09-07T03:04:02.243Z,95708.88
2022-09-07T03:06:38.305Z,95709.22
2022-09-07T03:09:10.573Z,95716.16
2022-09-07T03:11:37.836Z,95705.44
2022-09-07T03:14:20.086Z,95715.59
2022-09-07T03:16:50.323Z,95719.53
2022-09-07T03:19:17.768Z,95713.75
2022-09-07T03:21:45.111Z,95701.47
2022-09-07T03:24:12.331Z,95707.91
2022-09-07T03:26:43.397Z,95706.47
2022-09-07T03:29:10.761Z,95720.13
2022-09-07T03:31:37.991Z,95716.34
2022-09-07T03:34:05.248Z,95721.66
2022-09-07T03:36:33.008Z,95729.16
2022-09-07T03:39:00.917Z,95718.16
2022-09-07T03:41:28.741Z,95726.25
2022-09-07T03:43:56.144Z,95727.47
2022-09-07T03:46:23.362Z,95733.53
2022-09-07T03:48:50.621Z,95732.47
2022-09-07T03:51:18.148Z,95736.50
2022-09-07T03:53:47.326Z,95735.41
2022-09-07T03:56:20.462Z,95734.22
2022-09-07T03:58:49.780Z,95726.91
2022-09-07T04:01:18.596Z,95737.88
2022-09-07T04:03:46.241Z,95734.22
2022-09-07T04:06:13.951Z,95739.19
2022-09-07T04:08:42.424Z,95729.16
2022-09-07T04:11:13.493Z,95728.50
2022-09-07T04:13:41.408Z,95740.56
2022-09-07T04:16:19.303Z,95736.50
2022-09-07T04:18:47.378Z,95738.38
2022-09-07T04:21:14.540Z,95736.06
2022-09-07T04:23:43.013Z,95728.31
2022-09-07T04:26:19.675Z,95728.13
2022-09-07T04:28:47.138Z,95722.69
2022-09-07T04:31:16.932Z,95715.22
2022-09-07T04:33:45.631Z,95717.91
2022-09-07T04:36:12.877Z,95716.16
2022-09-07T04:38:40.079Z,95715.38
2022-09-07T04:41:12.602Z,95729.78
2022-09-07T04:43:40.783Z,95731.78
2022-09-07T04:46:13.802Z,95735.03
2022-09-07T04:48:41.035Z,95741.47
2022-09-07T04:51:10.217Z,95726.13
2022-09-07T04:53:37.925Z,95733.94
2022-09-07T04:56:05.248Z,95749.59
2022-09-07T04:58:32.674Z,95737.13
2022-09-07T05:01:07.158Z,95739.00
2022-09-07T05:03:37.354Z,95741.34
2022-09-07T05:06:05.554Z,95737.69
2022-09-07T05:08:41.483Z,95743.94
2022-09-07T05:11:10.067Z,95742.59
2022-09-07T05:13:37.581Z,95754.28
2022-09-07T05:16:16.851Z,95756.69
2022-09-07T05:18:44.310Z,95768.31
2022-09-07T05:21:14.300Z,95759.59
2022-09-07T05:23:42.153Z,95764.03
2022-09-07T05:26:11.959Z,95764.38
2022-09-07T05:28:39.125Z,95753.16
2022-09-07T05:31:19.614Z,95762.44
2022-09-07T05:36:37.274Z,95768.34
2022-09-07T05:39:06.225Z,95769.25
2022-09-07T05:41:33.812Z,95765.16
2022-09-07T05:46:48.334Z,95782.38
2022-09-07T05:49:15.453Z,95785.50
2022-09-07T05:51:42.672Z,95793.19
2022-09-07T05:54:11.025Z,95779.53
2022-09-07T05:56:38.262Z,95780.97
2022-09-07T05:59:05.481Z,95792.78
2022-09-07T06:01:32.827Z,95791.75
2022-09-07T06:04:00.348Z,95800.63
2022-09-07T06:06:27.501Z,95806.19
2022-09-07T06:08:54.786Z,95798.97
2022-09-07T06:11:25.418Z,95805.97
2022-09-07T06:13:52.908Z,95811.13
2022-09-07T06:16:20.552Z,95804.81
2022-09-07T06:18:49.740Z,95810.94
2022-09-07T06:21:19.466Z,95806.81
2022-09-07T06:23:47.777Z,95811.94
2022-09-07T06:26:16.522Z,95815.38
2022-09-07T06:28:48.885Z,95817.84
2022-09-07T06:31:19.722Z,95824.41
2022-09-07T06:33:48.272Z,95810.47
2022-09-07T06:36:21.035Z,95814.25
2022-09-07T06:38:49.618Z,95817.91
2022-09-07T06:44:08.771Z,95830.28
2022-09-07T06:49:23.694Z,95822.28
2022-09-07T06:51:50.882Z,95819.59
2022-09-07T06:57:09.021Z,95816.03
2022-09-07T06:59:37.947Z,95829.34
2022-09-07T07:02:06.292Z,95827.69
2022-09-07T07:04:39.584Z,95818.25
2022-09-07T07:07:12.263Z,95816.25
2022-09-07T07:09:40.050Z,95827.28
2022-09-07T07:12:07.417Z,95825.56
2022-09-07T07:14:38.386Z,95830.38
2022-09-07T07:17:07.064Z,95827.56
2022-09-07T07:19:34.251Z,95824.69
2022-09-07T07:22:18.350Z,95830.94
2022-09-07T07:24:48.616Z,95832.47
2022-09-07T07:27:15.926Z,95821.34
2022-09-07T07:29:43.175Z,95817.97
2022-09-07T07:32:10.304Z,95820.47
2022-09-07T07:34:37.501Z,95817.97
2022-09-07T07:37:04.709Z,95830.88
2022-09-07T07:42:18.924Z,95835.34
2022-09-07T07:44:46.180Z,95840.50
2022-09-07T07:47:13.332Z,95840.50
2022-09-07T07:49:40.430Z,95841.59
2022-09-07T07:54:54.627Z,95856.34
2022-09-07T07:57:21.739Z,95850.25
2022-09-07T07:59:48.849Z,95853.44
2022-09-07T08:02:17.129Z,95856.63
2022-09-07T08:04:44.620Z,95855.84
2022-09-07T08:07:12.184Z,95865.97
2022-09-07T08:09:40.706Z,95858.59
2022-09-07T08:12:09.713Z,95864.69
2022-09-07T08:14:41.012Z,95865.91
2022-09-07T08:17:13.812Z,95864.16
2022-09-07T08:19:41.601Z,95865.03
2022-09-07T08:22:10.556Z,95866.28
2022-09-07T08:24:37.907Z,95870.75
2022-09-07T08:27:05.277Z,95869.34
2022-09-07T08:29:34.641Z,95874.38
2022-09-07T08:32:06.929Z,95868.47
2022-09-07T08:34:36.029Z,95869.56
2022-09-07T08:37:03.770Z,95874.72
2022-09-07T08:39:31.026Z,95877.56
2022-09-07T08:42:05.598Z,95883.56
2022-09-07T08:44:46.371Z,95879.75
2022-09-07T08:47:35.035Z,95891.03
2022-09-07T08:50:05.088Z,95881.91
2022-09-07T08:52:46.731Z,95886.53
2022-09-07T08:55:28.915Z,95892.09
2022-09-07T08:58:22.184Z,95892.81
2022-09-07T09:07:06.626Z,95893.22
2022-09-07T09:10:07.042Z,95897.66
2022-09-07T09:12:55.911Z,95901.91
2022-09-07T09:15:31.541Z,95901.38
2022-09-07T09:18:19.664Z,95895.00
2022-09-07T09:20:51.891Z,95890.69
2022-09-07T09:23:21.654Z,95877.41
2022-09-07T09:25:57.318Z,95884.69
2022-09-07T09:28:26.603Z,95878.53
2022-09-07T09:30:56.291Z,95876.81
2022-09-07T09:33:28.795Z,95878.47
2022-09-07T09:35:59.035Z,95873.56
2022-09-07T09:38:29.072Z,95878.81
2022-09-07T09:40:58.131Z,95889.69
2022-09-07T09:43:30.445Z,95876.34
2022-09-07T09:46:13.661Z,95869.78
2022-09-07T09:48:42.009Z,95883.31
2022-09-07T09:54:39.139Z,95870.59
2022-09-07T09:57:06.675Z,95868.75
2022-09-07T10:05:42.042Z,95870.06
2022-09-07T10:08:16.969Z,95874.53
2022-09-07T10:10:52.250Z,95871.88
2022-09-07T10:13:28.262Z,95868.34
2022-09-07T10:15:57.606Z,95876.44
2022-09-07T10:18:50.837Z,95868.84
2022-09-07T10:21:26.514Z,95865.28
2022-09-07T10:24:07.211Z,95882.28
2022-09-07T10:26:38.941Z,95873.66
2022-09-07T10:29:12.191Z,95871.47
2022-09-07T10:32:05.747Z,95887.34
2022-09-07T10:34:46.926Z,95870.19
2022-09-07T10:37:19.282Z,95866.47
2022-09-07T10:40:08.854Z,95875.56
2022-09-07T10:43:20.593Z,95871.28
2022-09-07T10:45:40.416Z,95868.28
2022-09-07T10:48:14.790Z,95879.50
2022-09-07T10:50:56.577Z,95861.69
2022-09-07T10:54:29.893Z,95864.66
2022-09-07T10:56:45.298Z,95862.84
2022-09-07T10:59:23.963Z,95866.84
2022-09-07T11:02:15.256Z,95843.00
2022-09-07T11:05:11.964Z,95861.59
2022-09-07T11:08:02.443Z,95864.09
2022-09-07T11:10:37.678Z,95863.16
2022-09-07T11:13:06.743Z,95846.94
2022-09-07T11:15:42.746Z,95855.97
2022-09-07T11:18:30.324Z,95857.56
2022-09-07T11:21:01.742Z,95857.16
2022-09-07T11:23:54.547Z,95845.59
2022-09-07T11:26:25.658Z,95844.94
2022-09-07T11:31:50.462Z,95843.69
2022-09-07T11:34:26.001Z,95852.28
2022-09-07T11:37:08.330Z,95846.09
2022-09-07T11:39:48.095Z,95844.06
2022-09-07T11:45:38.766Z,95856.31
2022-09-07T11:48:14.312Z,95853.22
2022-09-07T11:50:51.590Z,95860.28
2022-09-07T11:53:23.108Z,95854.06
2022-09-07T11:55:56.418Z,95856.94
2022-09-07T11:58:54.114Z,95856.38
2022-09-07T12:01:40.023Z,95842.06
2022-09-07T12:04:26.162Z,95844.75
2022-09-07T12:07:00.539Z,95838.66
2022-09-07T12:09:46.269Z,95842.22
2022-09-07T12:12:37.424Z,95845.75
2022-09-07T12:15:10.178Z,95837.84
2022-09-07T12:17:49.893Z,95834.75
2022-09-07T12:20:23.159Z,95830.81
2022-09-07T12:23:05.682Z,95833.97
2022-09-07T12:25:34.647Z,95829.56
2022-09-07T12:28:02.183Z,95820.34
2022-09-07T12:30:30.578Z,95817.19
2022-09-07T12:33:06.312Z,95817.91
2022-09-07T12:35:33.385Z,95820.84
2022-09-07T12:38:13.481Z,95819.69
2022-09-07T12:40:49.587Z,95826.25
2022-09-07T12:43:16.628Z,95824.09
2022-09-07T12:45:43.688Z,95817.56
2022-09-07T12:48:16.709Z,95810.00
2022-09-07T12:50:58.969Z,95815.97
2022-09-07T12:53:43.896Z,95811.38
2022-09-07T12:56:22.939Z,95817.75
2022-09-07T12:59:22.417Z,95815.78
2022-09-07T13:02:26.898Z,95796.66
2022-09-07T13:05:15.904Z,95802.66
2022-09-07T13:08:09.285Z,95803.22
2022-09-07T13:10:47.087Z,95790.47
2022-09-07T13:13:14.465Z,95795.28
2022-09-07T13:15:41.653Z,95788.53
2022-09-07T13:18:25.771Z,95783.47
2022-09-07T13:21:07.964Z,95795.50
2022-09-07T13:23:37.895Z,95796.28
2022-09-07T13:26:10.653Z,95793.91
2022-09-07T13:28:58.307Z,95797.03
2022-09-07T13:31:52.925Z,95793.16
2022-09-07T13:34:32.361Z,95790.25
2022-09-07T13:37:01.906Z,95802.41
2022-09-07T13:39:32.464Z,95798.47
2022-09-07T13:42:00.767Z,95798.59
2022-09-07T13:44:32.166Z,95795.09
2022-09-07T13:47:12.573Z,95784.25
2022-09-07T13:50:11.598Z,95785.19
2022-09-07T13:52:57.141Z,95774.44
2022-09-07T13:55:53.618Z,95776.19
2022-09-07T13:58:33.411Z,95769.75
2022-09-07T14:01:28.177Z,95766.78
2022-09-07T14:04:16.959Z,95765.16
2022-09-07T14:06:44.087Z,95773.75
2022-09-07T14:09:20.700Z,95756.50
2022-09-07T14:11:52.483Z,95729.28
2022-09-07T14:14:19.566Z,95734.03
2022-09-07T14:16:54.155Z,95729.28
2022-09-07T14:19:45.220Z,95718.53
2022-09-07T14:22:16.121Z,95718.66
2022-09-07T14:24:48.222Z,95720.19
2022-09-07T14:27:41.999Z,95734.81
2022-09-07T14:30:28.099Z,95734.72
2022-09-07T14:33:24.839Z,95749.03
2022-09-07T14:35:52.042Z,95750.50
2022-09-07T14:41:20.539Z,95758.81
2022-09-07T14:43:53.208Z,95764.22
2022-09-07T14:46:26.735Z,95759.09
2022-09-07T14:48:56.264Z,95761.38
2022-09-07T14:51:35.662Z,95759.44
2022-09-07T14:54:06.680Z,95770.09
2022-09-07T14:56:39.284Z,95762.38
2022-09-07T14:59:34.782Z,95764.97
2022-09-07T15:02:29.048Z,95754.22
2022-09-07T15:05:14.561Z,95745.19
2022-09-07T15:07:47.117Z,95732.91
2022-09-07T15:10:21.505Z,95717.41
2022-09-07T15:12:50.383Z,95728.41
2022-09-07T15:15:22.026Z,95733.84
2022-09-07T15:17:49.507Z,95740.66
2022-09-07T15:20:43.023Z,95739.09
2022-09-07T15:23:13.009Z,95741.38
2022-09-07T15:25:45.306Z,95734.41
2022-09-07T15:34:09.910Z,95731.81
2022-09-07T15:36:40.371Z,95730.41
2022-09-07T15:39:16.201Z,95716.19
2022-09-07T15:41:44.566Z,95708.53
2022-09-07T15:44:13.742Z,95703.72
2022-09-07T15:46:42.625Z,95702.38
2022-09-07T15:49:12.412Z,95703.16
2022-09-07T15:54:27.931Z,95693.81
2022-09-07T15:59:42.104Z,95695.91
2022-09-07T16:04:56.336Z,95698.25
2022-09-07T16:08:24.846Z,95688.81
2022-09-07T16:10:12.562Z,95693.88
2022-09-07T16:15:27.963Z,95714.97
2022-09-07T16:17:55.044Z,95720.22
2022-09-07T16:20:22.162Z,95718.88
2022-09-07T16:25:37.588Z,95708.91
2022-09-07T16:28:05.777Z,95699.28
2022-09-07T16:30:33.341Z,95697.88
2022-09-07T16:33:00.586Z,95683.75
2022-09-07T16:35:27.781Z,95688.53
2022-09-07T16:40:42.015Z,95689.03
2022-09-07T16:43:10.028Z,95685.47
2022-09-07T16:48:24.318Z,95674.97
2022-09-07T16:50:56.502Z,95667.75
2022-09-07T16:53:28.732Z,95674.38
2022-09-07T16:56:06.537Z,95668.97
2022-09-07T16:58:36.754Z,95673.25
2022-09-07T17:01:09.636Z,95675.75
2022-09-07T17:03:37.841Z,95678.56
2022-09-07T17:06:06.949Z,95670.16
2022-09-07T17:08:34.583Z,95671.72
2022-09-07T17:11:03.526Z,95673.28
2022-09-07T17:13:31.816Z,95667.63
2022-09-07T17:16:06.449Z,95667.28
2022-09-07T17:21:21.640Z,95679.09
2022-09-07T17:23:54.916Z,95680.28
2022-09-07T17:26:26.643Z,95679.22
2022-09-07T17:28:59.687Z,95678.13
2022-09-07T17:34:20.155Z,95653.53
2022-09-07T17:36:47.527Z,95655.41
2022-09-07T17:39:16.876Z,95646.25
2022-09-07T17:41:45.595Z,95649.38
2022-09-07T17:44:12.730Z,95644.44
2022-09-07T17:46:39.823Z,95638.28
2022-09-07T17:49:08.671Z,95640.31
2022-09-07T17:51:35.941Z,95637.34
2022-09-07T17:54:09.607Z,95643.94
2022-09-07T17:56:39.084Z,95647.81
2022-09-07T18:01:54.140Z,95634.47
2022-09-07T18:04:21.869Z,95645.63
2022-09-07T18:06:49.253Z,95656.03
2022-09-07T18:09:16.681Z,95650.78
2022-09-07T18:11:45.919Z,95659.44
2022-09-07T18:14:15.068Z,95656.03
2022-09-07T18:16:44.762Z,95650.16
2022-09-07T18:19:12.907Z,95650.44
2022-09-07T18:21:43.011Z,95649.38
2022-09-07T18:24:19.418Z,95652.94
2022-09-07T18:26:50.685Z,95645.34
2022-09-07T18:29:36.856Z,95642.69
2022-09-07T18:32:08.697Z,95637.38
2022-09-07T18:34:37.749Z,95644.63
2022-09-07T18:37:05.666Z,95639.53
2022-09-07T18:39:33.478Z,95624.22
2022-09-07T18:42:00.629Z,95627.50
2022-09-07T18:47:22.278Z,95623.78
2022-09-07T18:49:51.455Z,95623.91
2022-09-07T18:55:09.781Z,95616.03
2022-09-07T18:57:37.607Z,95612.59
2022-09-07T19:00:09.967Z,95603.91
2022-09-07T19:02:37.422Z,95590.28
2022-09-07T19:07:51.990Z,95578.03
2022-09-07T19:10:19.018Z,95571.66
2022-09-07T19:12:46.547Z,95561.91
2022-09-07T19:15:14.130Z,95568.56
2022-09-07T19:17:41.289Z,95572.44
2022-09-07T19:20:09.160Z,95579.56
2022-09-07T19:22:36.216Z,95580.34
2022-09-07T19:25:03.685Z,95576.91
2022-09-07T19:27:33.040Z,95575.13
2022-09-07T19:30:00.541Z,95574.94
2022-09-07T19:32:27.746Z,95580.41
2022-09-07T19:34:55.399Z,95574.22
2022-09-07T19:37:25.342Z,95569.00
2022-09-07T19:39:55.025Z,95568.56
2022-09-07T19:42:23.706Z,95571.66
2022-09-07T19:44:51.838Z,95579.28
2022-09-07T19:47:19.144Z,95573.09
2022-09-07T19:49:46.368Z,95581.13
2022-09-07T19:52:13.494Z,95575.56
2022-09-07T19:54:40.557Z,95571.47
2022-09-07T19:57:07.613Z,95575.78
2022-09-07T19:59:34.694Z,95574.81
2022-09-07T20:02:01.823Z,95569.25
2022-09-07T20:04:29.092Z,95562.09
2022-09-07T20:06:56.476Z,95563.69
2022-09-07T20:09:24.722Z,95567.38
2022-09-07T20:11:51.833Z,95569.03
2022-09-07T20:14:19.163Z,95558.84
2022-09-07T20:16:46.372Z,95542.41
2022-09-07T20:19:17.233Z,95539.69
2022-09-07T20:21:44.298Z,95535.06
2022-09-07T20:24:12.395Z,95534.00
2022-09-07T20:26:39.647Z,95536.25
2022-09-07T20:31:54.788Z,95526.97
2022-09-07T20:34:21.901Z,95534.00
2022-09-07T20:36:50.085Z,95530.38
2022-09-07T20:39:17.918Z,95526.06
2022-09-07T20:41:45.324Z,95527.13
2022-09-07T20:44:12.896Z,95526.34
2022-09-07T20:46:40.072Z,95521.88
2022-09-07T20:49:07.321Z,95526.28
2022-09-07T20:51:35.319Z,95533.94
2022-09-07T20:54:02.445Z,95532.19
2022-09-07T20:56:30.745Z,95543.97
2022-09-07T20:59:00.302Z,95556.72
2022-09-07T21:01:28.735Z,95558.31
2022-09-07T21:03:57.933Z,95567.72
2022-09-07T21:06:26.278Z,95576.34
2022-09-07T21:08:54.673Z,95575.09
2022-09-07T21:11:25.116Z,95575.66
2022-09-07T21:14:06.083Z,95574.44
2022-09-07T21:16:34.990Z,95572.25
2022-09-07T21:19:04.000Z,95557.00
2022-09-07T21:21:38.579Z,95554.97
2022-09-07T21:24:12.789Z,95550.44
2022-09-07T21:26:39.855Z,95549.47
2022-09-07T21:29:07.577Z,95553.47
2022-09-07T21:31:34.736Z,95555.31
2022-09-07T21:34:02.509Z,95556.69
2022-09-07T21:36:30.839Z,95548.53
2022-09-07T21:38:57.879Z,95557.59
2022-09-07T21:41:25.536Z,95542.44
2022-09-07T21:43:59.853Z,95543.44
2022-09-07T21:46:28.663Z,95541.56
2022-09-07T21:48:57.937Z,95542.53
2022-09-07T21:51:25.774Z,95538.91
2022-09-07T21:53:54.662Z,95538.91
2022-09-07T21:56:22.230Z,95537.53
2022-09-07T21:58:55.090Z,95535.34
2022-09-07T22:01:23.819Z,95529.00
2022-09-07T22:03:56.255Z,95528.09
2022-09-07T22:06:24.536Z,95528.09
2022-09-07T22:08:51.623Z,95511.66
2022-09-07T22:11:20.733Z,95508.06
2022-09-07T22:13:47.865Z,95509.19
2022-09-07T22:16:15.281Z,95509.69
2022-09-07T22:18:44.508Z,95508.94
2022-09-07T22:21:17.435Z,95502.75
2022-09-07T22:23:47.230Z,95497.81
2022-09-07T22:26:17.218Z,95490.75
2022-09-07T22:28:44.326Z,95481.75
2022-09-07T22:31:17.185Z,95479.63
2022-09-07T22:33:45.691Z,95481.13
2022-09-07T22:36:24.976Z,95479.53
2022-09-07T22:38:53.241Z,95458.16
2022-09-07T22:41:22.959Z,95453.91
2022-09-07T22:43:53.080Z,95451.53
2022-09-07T22:46:22.834Z,95451.69
2022-09-07T22:48:50.314Z,95448.00
2022-09-07T22:51:17.519Z,95448.09
2022-09-07T22:53:44.571Z,95453.19
2022-09-07T22:56:18.480Z,95467.53
2022-09-07T22:58:50.850Z,95480.66
2022-09-07T23:01:19.054Z,95481.50
2022-09-07T23:03:46.564Z,95478.22
2022-09-07T23:06:24.742Z,95479.00
2022-09-07T23:08:52.892Z,95484.75
2022-09-07T23:11:20.643Z,95481.66
2022-09-07T23:13:52.809Z,95469.47
2022-09-07T23:16:20.859Z,95466.31
2022-09-07T23:18:48.909Z,95460.63
2022-09-07T23:21:16.570Z,95457.56
2022-09-07T23:23:44.160Z,95434.47
2022-09-07T23:26:11.283Z,95446.31
2022-09-07T23:28:38.373Z,95444.50
2022-09-07T23:31:05.937Z,95445.28
2022-09-07T23:33:33.172Z,95442.16
2022-09-07T23:36:04.727Z,95433.63
2022-09-07T23:38:32.825Z,95428.22
2022-09-07T23:41:00.396Z,95431.94
2022-09-07T23:43:28.861Z,95419.34
2022-09-07T23:45:56.358Z,95400.91
2022-09-07T23:48:23.929Z,95398.88
2022-09-07T23:50:51.284Z,95382.50
2022-09-07T23:53:19.241Z,95371.66
2022-09-07T23:55:50.002Z,95371.28
2022-09-07T23:58:17.611Z,95362.50
